sensor_id;sensor_type;location;lat;lon;timestamp;P1;durP1;ratioP1;P2;durP2;ratioP2
81231;SDS011;70703;55.652;37.710;2023-08-08T00:00:00;8.50;;;3.75;;
81231;SDS011;70703;55.652;37.710;2023-08-08T00:00:16;9.52;;;3.70;;
81231;SDS011;70703;55.652;37.710;2023-08-08T00:00:29;6.55;;;3.50;;
81231;SDS011;70703;55.652;37.710;2023-08-08T00:00:41;8.70;;;3.75;;
81231;SDS011;70703;55.652;37.710;2023-08-08T00:00:53;9.48;;;3.70;;
81231;SDS011;70703;55.652;37.710;2023-08-08T00:01:04;11.52;;;3.50;;
81231;SDS011;70703;55.652;37.710;2023-08-08T00:01:17;11.35;;;3.30;;
81231;SDS011;70703;55.652;37.710;2023-08-08T00:01:30;11.27;;;3.17;;
81231;SDS011;70703;55.652;37.710;2023-08-08T00:01:41;13.13;;;3.40;;
81231;SDS011;70703;55.652;37.710;2023-08-08T00:01:55;12.90;;;3.67;;
81231;SDS011;70703;55.652;37.710;2023-08-08T00:02:07;10.98;;;3.60;;
81231;SDS011;70703;55.652;37.710;2023-08-08T00:02:18;10.27;;;3.50;;
81231;SDS011;70703;55.652;37.710;2023-08-08T00:02:30;9.27;;;3.45;;
81231;SDS011;70703;55.652;37.710;2023-08-08T00:02:42;9.50;;;3.53;;
81231;SDS011;70703;55.652;37.710;2023-08-08T00:02:53;8.60;;;3.60;;
81231;SDS011;70703;55.652;37.710;2023-08-08T00:03:04;6.07;;;3.60;;
81231;SDS011;70703;55.652;37.710;2023-08-08T00:03:16;6.53;;;3.47;;
81231;SDS011;70703;55.652;37.710;2023-08-08T00:03:29;6.22;;;3.15;;
81231;SDS011;70703;55.652;37.710;2023-08-08T00:03:41;6.40;;;3.20;;
81231;SDS011;70703;55.652;37.710;2023-08-08T00:03:53;7.03;;;3.30;;
81231;SDS011;70703;55.652;37.710;2023-08-08T00:04:04;7.05;;;3.22;;
81231;SDS011;70703;55.652;37.710;2023-08-08T00:04:16;8.20;;;3.40;;
81231;SDS011;70703;55.652;37.710;2023-08-08T00:04:27;8.63;;;3.50;;
81231;SDS011;70703;55.652;37.710;2023-08-08T00:04:39;11.15;;;3.63;;
81231;SDS011;70703;55.652;37.710;2023-08-08T00:04:51;13.55;;;3.70;;
81231;SDS011;70703;55.652;37.710;2023-08-08T00:05:03;11.98;;;3.55;;
81231;SDS011;70703;55.652;37.710;2023-08-08T00:05:18;7.97;;;3.30;;
81231;SDS011;70703;55.652;37.710;2023-08-08T00:05:30;7.43;;;3.42;;
81231;SDS011;70703;55.652;37.710;2023-08-08T00:05:42;9.30;;;3.72;;
81231;SDS011;70703;55.652;37.710;2023-08-08T00:05:53;10.07;;;3.70;;
81231;SDS011;70703;55.652;37.710;2023-08-08T00:06:05;11.13;;;3.83;;
81231;SDS011;70703;55.652;37.710;2023-08-08T00:06:18;10.50;;;3.70;;
81231;SDS011;70703;55.652;37.710;2023-08-08T00:06:30;10.23;;;3.70;;
81231;SDS011;70703;55.652;37.710;2023-08-08T00:06:42;8.35;;;3.65;;
81231;SDS011;70703;55.652;37.710;2023-08-08T00:06:53;7.70;;;3.85;;
81231;SDS011;70703;55.652;37.710;2023-08-08T00:07:07;8.38;;;3.70;;
81231;SDS011;70703;55.652;37.710;2023-08-08T00:07:21;12.50;;;3.65;;
81231;SDS011;70703;55.652;37.710;2023-08-08T00:07:33;19.00;;;3.83;;
81231;SDS011;70703;55.652;37.710;2023-08-08T00:07:45;17.33;;;3.90;;
81231;SDS011;70703;55.652;37.710;2023-08-08T00:07:57;13.70;;;3.78;;
81231;SDS011;70703;55.652;37.710;2023-08-08T00:08:09;7.43;;;3.30;;
81231;SDS011;70703;55.652;37.710;2023-08-08T00:08:21;5.57;;;3.35;;
81231;SDS011;70703;55.652;37.710;2023-08-08T00:08:32;6.43;;;3.42;;
81231;SDS011;70703;55.652;37.710;2023-08-08T00:08:44;8.02;;;3.47;;
81231;SDS011;70703;55.652;37.710;2023-08-08T00:08:57;8.85;;;3.60;;
81231;SDS011;70703;55.652;37.710;2023-08-08T00:09:10;9.52;;;3.50;;
81231;SDS011;70703;55.652;37.710;2023-08-08T00:09:22;10.43;;;3.55;;
81231;SDS011;70703;55.652;37.710;2023-08-08T00:09:34;9.10;;;3.45;;
81231;SDS011;70703;55.652;37.710;2023-08-08T00:09:46;9.07;;;3.70;;
81231;SDS011;70703;55.652;37.710;2023-08-08T00:09:57;10.35;;;3.80;;
81231;SDS011;70703;55.652;37.710;2023-08-08T00:10:09;11.23;;;3.72;;
81231;SDS011;70703;55.652;37.710;2023-08-08T00:10:21;9.90;;;3.67;;
81231;SDS011;70703;55.652;37.710;2023-08-08T00:10:34;8.93;;;3.78;;
81231;SDS011;70703;55.652;37.710;2023-08-08T00:10:46;8.50;;;3.70;;
81231;SDS011;70703;55.652;37.710;2023-08-08T00:10:58;8.45;;;3.60;;
81231;SDS011;70703;55.652;37.710;2023-08-08T00:11:12;7.82;;;3.53;;
81231;SDS011;70703;55.652;37.710;2023-08-08T00:11:24;8.00;;;3.58;;
81231;SDS011;70703;55.652;37.710;2023-08-08T00:11:36;8.93;;;3.72;;
81231;SDS011;70703;55.652;37.710;2023-08-08T00:11:47;8.27;;;3.72;;
81231;SDS011;70703;55.652;37.710;2023-08-08T00:11:59;7.57;;;3.55;;
81231;SDS011;70703;55.652;37.710;2023-08-08T00:12:11;8.80;;;3.60;;
81231;SDS011;70703;55.652;37.710;2023-08-08T00:12:23;8.57;;;3.63;;
81231;SDS011;70703;55.652;37.710;2023-08-08T00:12:35;8.48;;;3.80;;
81231;SDS011;70703;55.652;37.710;2023-08-08T00:12:47;10.25;;;3.80;;
81231;SDS011;70703;55.652;37.710;2023-08-08T00:13:00;11.93;;;3.75;;
81231;SDS011;70703;55.652;37.710;2023-08-08T00:13:12;11.38;;;3.60;;
81231;SDS011;70703;55.652;37.710;2023-08-08T00:13:23;8.98;;;3.50;;
81231;SDS011;70703;55.652;37.710;2023-08-08T00:13:36;11.30;;;3.80;;
81231;SDS011;70703;55.652;37.710;2023-08-08T00:13:47;10.68;;;3.75;;
81231;SDS011;70703;55.652;37.710;2023-08-08T00:13:59;8.77;;;3.70;;
81231;SDS011;70703;55.652;37.710;2023-08-08T00:14:12;9.32;;;3.58;;
81231;SDS011;70703;55.652;37.710;2023-08-08T00:14:23;8.65;;;3.53;;
81231;SDS011;70703;55.652;37.710;2023-08-08T00:14:36;7.25;;;3.60;;
81231;SDS011;70703;55.652;37.710;2023-08-08T00:14:49;8.02;;;3.63;;
81231;SDS011;70703;55.652;37.710;2023-08-08T00:15:00;8.73;;;3.75;;
81231;SDS011;70703;55.652;37.710;2023-08-08T00:15:13;7.65;;;3.70;;
81231;SDS011;70703;55.652;37.710;2023-08-08T00:15:26;6.57;;;3.60;;
81231;SDS011;70703;55.652;37.710;2023-08-08T00:15:39;7.15;;;3.53;;
81231;SDS011;70703;55.652;37.710;2023-08-08T00:15:51;7.78;;;3.50;;
81231;SDS011;70703;55.652;37.710;2023-08-08T00:16:02;7.95;;;3.22;;
81231;SDS011;70703;55.652;37.710;2023-08-08T00:16:14;7.60;;;3.33;;
81231;SDS011;70703;55.652;37.710;2023-08-08T00:16:28;11.30;;;3.65;;
81231;SDS011;70703;55.652;37.710;2023-08-08T00:16:39;12.57;;;3.80;;
81231;SDS011;70703;55.652;37.710;2023-08-08T00:16:51;9.85;;;3.80;;
81231;SDS011;70703;55.652;37.710;2023-08-08T00:17:02;10.02;;;3.60;;
81231;SDS011;70703;55.652;37.710;2023-08-08T00:17:15;15.77;;;3.80;;
81231;SDS011;70703;55.652;37.710;2023-08-08T00:17:27;15.60;;;3.90;;
81231;SDS011;70703;55.652;37.710;2023-08-08T00:17:39;11.15;;;3.78;;
81231;SDS011;70703;55.652;37.710;2023-08-08T00:17:52;6.38;;;3.63;;
81231;SDS011;70703;55.652;37.710;2023-08-08T00:18:04;9.27;;;3.60;;
81231;SDS011;70703;55.652;37.710;2023-08-08T00:18:18;13.25;;;3.60;;
81231;SDS011;70703;55.652;37.710;2023-08-08T00:18:29;15.07;;;3.70;;
81231;SDS011;70703;55.652;37.710;2023-08-08T00:18:42;10.20;;;3.60;;
81231;SDS011;70703;55.652;37.710;2023-08-08T00:18:54;11.02;;;3.50;;
81231;SDS011;70703;55.652;37.710;2023-08-08T00:19:05;9.77;;;3.40;;
81231;SDS011;70703;55.652;37.710;2023-08-08T00:19:18;9.02;;;3.65;;
81231;SDS011;70703;55.652;37.710;2023-08-08T00:19:30;9.40;;;3.83;;
81231;SDS011;70703;55.652;37.710;2023-08-08T00:19:41;11.18;;;3.83;;
81231;SDS011;70703;55.652;37.710;2023-08-08T00:19:54;10.52;;;3.47;;
81231;SDS011;70703;55.652;37.710;2023-08-08T00:20:08;9.65;;;3.22;;
81231;SDS011;70703;55.652;37.710;2023-08-08T00:20:22;10.07;;;3.58;;
81231;SDS011;70703;55.652;37.710;2023-08-08T00:20:33;11.57;;;3.63;;
81231;SDS011;70703;55.652;37.710;2023-08-08T00:20:45;13.18;;;3.67;;
81231;SDS011;70703;55.652;37.710;2023-08-08T00:20:57;13.13;;;3.63;;
81231;SDS011;70703;55.652;37.710;2023-08-08T00:21:10;10.43;;;3.70;;
81231;SDS011;70703;55.652;37.710;2023-08-08T00:21:23;9.80;;;3.63;;
81231;SDS011;70703;55.652;37.710;2023-08-08T00:21:35;10.32;;;3.53;;
81231;SDS011;70703;55.652;37.710;2023-08-08T00:21:48;9.77;;;3.72;;
81231;SDS011;70703;55.652;37.710;2023-08-08T00:22:00;9.10;;;3.83;;
81231;SDS011;70703;55.652;37.710;2023-08-08T00:22:12;9.80;;;3.80;;
81231;SDS011;70703;55.652;37.710;2023-08-08T00:22:24;10.20;;;3.75;;
81231;SDS011;70703;55.652;37.710;2023-08-08T00:22:36;9.85;;;3.67;;
81231;SDS011;70703;55.652;37.710;2023-08-08T00:22:48;7.95;;;3.35;;
81231;SDS011;70703;55.652;37.710;2023-08-08T00:23:00;8.05;;;3.45;;
81231;SDS011;70703;55.652;37.710;2023-08-08T00:23:12;8.48;;;3.50;;
81231;SDS011;70703;55.652;37.710;2023-08-08T00:23:23;10.38;;;3.55;;
81231;SDS011;70703;55.652;37.710;2023-08-08T00:23:35;10.55;;;3.67;;
81231;SDS011;70703;55.652;37.710;2023-08-08T00:23:47;9.77;;;3.67;;
81231;SDS011;70703;55.652;37.710;2023-08-08T00:23:58;10.57;;;3.55;;
81231;SDS011;70703;55.652;37.710;2023-08-08T00:24:10;10.15;;;3.65;;
81231;SDS011;70703;55.652;37.710;2023-08-08T00:24:21;10.10;;;3.63;;
81231;SDS011;70703;55.652;37.710;2023-08-08T00:24:34;9.82;;;3.65;;
81231;SDS011;70703;55.652;37.710;2023-08-08T00:24:45;11.27;;;3.72;;
81231;SDS011;70703;55.652;37.710;2023-08-08T00:24:58;10.93;;;3.80;;
81231;SDS011;70703;55.652;37.710;2023-08-08T00:25:09;10.98;;;3.75;;
81231;SDS011;70703;55.652;37.710;2023-08-08T00:25:22;7.78;;;3.85;;
81231;SDS011;70703;55.652;37.710;2023-08-08T00:25:34;7.95;;;3.90;;
81231;SDS011;70703;55.652;37.710;2023-08-08T00:25:48;8.88;;;3.60;;
81231;SDS011;70703;55.652;37.710;2023-08-08T00:26:02;10.00;;;3.55;;
81231;SDS011;70703;55.652;37.710;2023-08-08T00:26:14;8.70;;;3.75;;
81231;SDS011;70703;55.652;37.710;2023-08-08T00:26:25;10.40;;;3.67;;
81231;SDS011;70703;55.652;37.710;2023-08-08T00:26:37;9.63;;;3.60;;
81231;SDS011;70703;55.652;37.710;2023-08-08T00:26:49;8.32;;;3.60;;
81231;SDS011;70703;55.652;37.710;2023-08-08T00:27:03;9.55;;;3.83;;
81231;SDS011;70703;55.652;37.710;2023-08-08T00:27:15;13.38;;;3.90;;
81231;SDS011;70703;55.652;37.710;2023-08-08T00:27:29;11.48;;;3.95;;
81231;SDS011;70703;55.652;37.710;2023-08-08T00:27:40;10.10;;;3.80;;
81231;SDS011;70703;55.652;37.710;2023-08-08T00:27:55;7.32;;;3.67;;
81231;SDS011;70703;55.652;37.710;2023-08-08T00:28:06;7.32;;;3.60;;
81231;SDS011;70703;55.652;37.710;2023-08-08T00:28:18;8.48;;;3.75;;
81231;SDS011;70703;55.652;37.710;2023-08-08T00:28:30;8.65;;;3.80;;
81231;SDS011;70703;55.652;37.710;2023-08-08T00:28:41;7.45;;;3.83;;
81231;SDS011;70703;55.652;37.710;2023-08-08T00:28:53;7.75;;;3.70;;
81231;SDS011;70703;55.652;37.710;2023-08-08T00:29:05;6.97;;;3.55;;
81231;SDS011;70703;55.652;37.710;2023-08-08T00:29:19;7.40;;;3.40;;
81231;SDS011;70703;55.652;37.710;2023-08-08T00:29:30;9.25;;;3.65;;
81231;SDS011;70703;55.652;37.710;2023-08-08T00:29:42;10.27;;;4.00;;
81231;SDS011;70703;55.652;37.710;2023-08-08T00:29:57;8.93;;;3.97;;
81231;SDS011;70703;55.652;37.710;2023-08-08T00:30:09;8.90;;;3.72;;
81231;SDS011;70703;55.652;37.710;2023-08-08T00:30:21;7.65;;;3.60;;
81231;SDS011;70703;55.652;37.710;2023-08-08T00:30:32;7.78;;;3.50;;
81231;SDS011;70703;55.652;37.710;2023-08-08T00:30:44;8.48;;;3.80;;
81231;SDS011;70703;55.652;37.710;2023-08-08T00:30:56;8.65;;;3.80;;
81231;SDS011;70703;55.652;37.710;2023-08-08T00:31:07;8.90;;;3.72;;
81231;SDS011;70703;55.652;37.710;2023-08-08T00:31:22;9.63;;;3.40;;
81231;SDS011;70703;55.652;37.710;2023-08-08T00:31:34;9.35;;;3.50;;
81231;SDS011;70703;55.652;37.710;2023-08-08T00:31:46;7.97;;;3.63;;
81231;SDS011;70703;55.652;37.710;2023-08-08T00:31:59;9.00;;;3.90;;
81231;SDS011;70703;55.652;37.710;2023-08-08T00:32:11;8.05;;;3.92;;
81231;SDS011;70703;55.652;37.710;2023-08-08T00:32:23;7.80;;;4.10;;
81231;SDS011;70703;55.652;37.710;2023-08-08T00:32:34;8.02;;;4.00;;
81231;SDS011;70703;55.652;37.710;2023-08-08T00:32:46;8.73;;;4.00;;
81231;SDS011;70703;55.652;37.710;2023-08-08T00:32:57;8.38;;;3.83;;
81231;SDS011;70703;55.652;37.710;2023-08-08T00:33:10;6.82;;;3.70;;
81231;SDS011;70703;55.652;37.710;2023-08-08T00:33:23;6.65;;;3.83;;
81231;SDS011;70703;55.652;37.710;2023-08-08T00:33:34;7.70;;;3.70;;
81231;SDS011;70703;55.652;37.710;2023-08-08T00:33:45;8.00;;;3.70;;
81231;SDS011;70703;55.652;37.710;2023-08-08T00:33:57;7.53;;;3.78;;
81231;SDS011;70703;55.652;37.710;2023-08-08T00:34:10;8.10;;;3.72;;
81231;SDS011;70703;55.652;37.710;2023-08-08T00:34:22;7.50;;;3.90;;
81231;SDS011;70703;55.652;37.710;2023-08-08T00:34:34;7.50;;;3.88;;
81231;SDS011;70703;55.652;37.710;2023-08-08T00:34:47;8.65;;;3.83;;
81231;SDS011;70703;55.652;37.710;2023-08-08T00:34:59;9.85;;;3.70;;
81231;SDS011;70703;55.652;37.710;2023-08-08T00:35:10;8.55;;;3.60;;
81231;SDS011;70703;55.652;37.710;2023-08-08T00:35:23;8.13;;;3.80;;
81231;SDS011;70703;55.652;37.710;2023-08-08T00:35:34;7.38;;;3.92;;
81231;SDS011;70703;55.652;37.710;2023-08-08T00:35:47;8.15;;;3.78;;
81231;SDS011;70703;55.652;37.710;2023-08-08T00:35:59;7.75;;;3.63;;
81231;SDS011;70703;55.652;37.710;2023-08-08T00:36:11;8.95;;;3.55;;
81231;SDS011;70703;55.652;37.710;2023-08-08T00:36:23;9.18;;;3.53;;
81231;SDS011;70703;55.652;37.710;2023-08-08T00:36:34;9.90;;;3.58;;
81231;SDS011;70703;55.652;37.710;2023-08-08T00:36:47;10.98;;;3.83;;
81231;SDS011;70703;55.652;37.710;2023-08-08T00:36:59;10.30;;;4.07;;
81231;SDS011;70703;55.652;37.710;2023-08-08T00:37:11;7.78;;;4.00;;
81231;SDS011;70703;55.652;37.710;2023-08-08T00:37:22;8.73;;;4.00;;
81231;SDS011;70703;55.652;37.710;2023-08-08T00:37:34;8.18;;;3.85;;
81231;SDS011;70703;55.652;37.710;2023-08-08T00:37:45;7.47;;;3.90;;
81231;SDS011;70703;55.652;37.710;2023-08-08T00:37:57;8.15;;;3.97;;
81231;SDS011;70703;55.652;37.710;2023-08-08T00:38:08;9.20;;;4.10;;
81231;SDS011;70703;55.652;37.710;2023-08-08T00:38:20;8.98;;;3.95;;
81231;SDS011;70703;55.652;37.710;2023-08-08T00:38:31;8.80;;;3.83;;
81231;SDS011;70703;55.652;37.710;2023-08-08T00:38:45;9.50;;;4.00;;
81231;SDS011;70703;55.652;37.710;2023-08-08T00:38:57;8.70;;;4.18;;
81231;SDS011;70703;55.652;37.710;2023-08-08T00:39:10;8.10;;;4.20;;
81231;SDS011;70703;55.652;37.710;2023-08-08T00:39:22;9.27;;;4.32;;
81231;SDS011;70703;55.652;37.710;2023-08-08T00:39:35;8.38;;;4.20;;
81231;SDS011;70703;55.652;37.710;2023-08-08T00:39:46;8.45;;;4.25;;
81231;SDS011;70703;55.652;37.710;2023-08-08T00:39:58;7.47;;;4.15;;
81231;SDS011;70703;55.652;37.710;2023-08-08T00:40:10;7.55;;;4.05;;
81231;SDS011;70703;55.652;37.710;2023-08-08T00:40:23;8.38;;;3.85;;
81231;SDS011;70703;55.652;37.710;2023-08-08T00:40:35;8.90;;;4.00;;
81231;SDS011;70703;55.652;37.710;2023-08-08T00:40:46;10.68;;;4.07;;
81231;SDS011;70703;55.652;37.710;2023-08-08T00:40:59;8.90;;;3.90;;
81231;SDS011;70703;55.652;37.710;2023-08-08T00:41:10;8.27;;;3.60;;
81231;SDS011;70703;55.652;37.710;2023-08-08T00:41:21;7.28;;;3.60;;
81231;SDS011;70703;55.652;37.710;2023-08-08T00:41:33;7.88;;;3.60;;
81231;SDS011;70703;55.652;37.710;2023-08-08T00:41:45;6.28;;;3.63;;
81231;SDS011;70703;55.652;37.710;2023-08-08T00:41:56;7.40;;;3.83;;
81231;SDS011;70703;55.652;37.710;2023-08-08T00:42:08;8.80;;;4.07;;
81231;SDS011;70703;55.652;37.710;2023-08-08T00:42:19;12.10;;;4.10;;
81231;SDS011;70703;55.652;37.710;2023-08-08T00:42:33;9.95;;;3.80;;
81231;SDS011;70703;55.652;37.710;2023-08-08T00:42:44;10.65;;;3.78;;
81231;SDS011;70703;55.652;37.710;2023-08-08T00:42:58;10.35;;;4.20;;
81231;SDS011;70703;55.652;37.710;2023-08-08T00:43:09;9.23;;;4.10;;
81231;SDS011;70703;55.652;37.710;2023-08-08T00:43:23;9.27;;;4.22;;
81231;SDS011;70703;55.652;37.710;2023-08-08T00:43:35;9.23;;;4.03;;
81231;SDS011;70703;55.652;37.710;2023-08-08T00:43:46;9.50;;;4.00;;
81231;SDS011;70703;55.652;37.710;2023-08-08T00:43:58;9.88;;;3.90;;
81231;SDS011;70703;55.652;37.710;2023-08-08T00:44:09;7.72;;;3.83;;
81231;SDS011;70703;55.652;37.710;2023-08-08T00:44:22;6.68;;;3.80;;
81231;SDS011;70703;55.652;37.710;2023-08-08T00:44:34;7.95;;;3.63;;
81231;SDS011;70703;55.652;37.710;2023-08-08T00:44:45;9.82;;;3.70;;
81231;SDS011;70703;55.652;37.710;2023-08-08T00:44:57;10.50;;;3.78;;
81231;SDS011;70703;55.652;37.710;2023-08-08T00:45:12;7.47;;;3.80;;
81231;SDS011;70703;55.652;37.710;2023-08-08T00:45:27;6.95;;;3.88;;
81231;SDS011;70703;55.652;37.710;2023-08-08T00:45:39;7.65;;;3.72;;
81231;SDS011;70703;55.652;37.710;2023-08-08T00:45:54;7.75;;;3.80;;
81231;SDS011;70703;55.652;37.710;2023-08-08T00:46:06;9.13;;;3.78;;
81231;SDS011;70703;55.652;37.710;2023-08-08T00:46:18;9.23;;;3.88;;
81231;SDS011;70703;55.652;37.710;2023-08-08T00:46:32;9.15;;;3.83;;
81231;SDS011;70703;55.652;37.710;2023-08-08T00:46:45;11.32;;;3.92;;
81231;SDS011;70703;55.652;37.710;2023-08-08T00:46:57;10.48;;;4.00;;
81231;SDS011;70703;55.652;37.710;2023-08-08T00:47:08;8.00;;;3.72;;
81231;SDS011;70703;55.652;37.710;2023-08-08T00:47:21;8.00;;;3.70;;
81231;SDS011;70703;55.652;37.710;2023-08-08T00:47:33;8.27;;;3.72;;
81231;SDS011;70703;55.652;37.710;2023-08-08T00:47:45;8.10;;;3.70;;
81231;SDS011;70703;55.652;37.710;2023-08-08T00:47:57;9.30;;;3.97;;
81231;SDS011;70703;55.652;37.710;2023-08-08T00:48:10;9.60;;;4.20;;
81231;SDS011;70703;55.652;37.710;2023-08-08T00:48:22;10.50;;;4.07;;
81231;SDS011;70703;55.652;37.710;2023-08-08T00:48:34;10.82;;;4.20;;
81231;SDS011;70703;55.652;37.710;2023-08-08T00:48:46;9.43;;;4.20;;
81231;SDS011;70703;55.652;37.710;2023-08-08T00:48:58;9.23;;;4.20;;
81231;SDS011;70703;55.652;37.710;2023-08-08T00:49:11;8.57;;;4.15;;
81231;SDS011;70703;55.652;37.710;2023-08-08T00:49:23;8.35;;;4.15;;
81231;SDS011;70703;55.652;37.710;2023-08-08T00:49:37;10.02;;;4.20;;
81231;SDS011;70703;55.652;37.710;2023-08-08T00:49:51;9.55;;;4.00;;
81231;SDS011;70703;55.652;37.710;2023-08-08T00:50:04;9.45;;;3.90;;
81231;SDS011;70703;55.652;37.710;2023-08-08T00:50:17;8.93;;;3.92;;
81231;SDS011;70703;55.652;37.710;2023-08-08T00:50:29;8.75;;;4.10;;
81231;SDS011;70703;55.652;37.710;2023-08-08T00:50:42;7.68;;;4.00;;
81231;SDS011;70703;55.652;37.710;2023-08-08T00:50:54;9.13;;;4.00;;
81231;SDS011;70703;55.652;37.710;2023-08-08T00:51:06;8.80;;;3.80;;
81231;SDS011;70703;55.652;37.710;2023-08-08T00:51:17;8.98;;;3.80;;
81231;SDS011;70703;55.652;37.710;2023-08-08T00:51:29;7.80;;;3.70;;
81231;SDS011;70703;55.652;37.710;2023-08-08T00:51:41;8.18;;;3.90;;
81231;SDS011;70703;55.652;37.710;2023-08-08T00:51:53;7.97;;;3.83;;
81231;SDS011;70703;55.652;37.710;2023-08-08T00:52:04;8.30;;;3.83;;
81231;SDS011;70703;55.652;37.710;2023-08-08T00:52:18;7.25;;;3.63;;
81231;SDS011;70703;55.652;37.710;2023-08-08T00:52:29;6.82;;;3.50;;
81231;SDS011;70703;55.652;37.710;2023-08-08T00:52:40;8.32;;;3.78;;
81231;SDS011;70703;55.652;37.710;2023-08-08T00:52:53;8.38;;;3.80;;
81231;SDS011;70703;55.652;37.710;2023-08-08T00:53:05;7.60;;;3.67;;
81231;SDS011;70703;55.652;37.710;2023-08-08T00:53:18;8.55;;;3.60;;
81231;SDS011;70703;55.652;37.710;2023-08-08T00:53:29;7.68;;;3.67;;
81231;SDS011;70703;55.652;37.710;2023-08-08T00:53:44;6.15;;;3.72;;
81231;SDS011;70703;55.652;37.710;2023-08-08T00:53:56;7.85;;;3.90;;
81231;SDS011;70703;55.652;37.710;2023-08-08T00:54:07;9.50;;;3.80;;
81231;SDS011;70703;55.652;37.710;2023-08-08T00:54:21;9.73;;;3.80;;
81231;SDS011;70703;55.652;37.710;2023-08-08T00:54:34;9.15;;;3.72;;
81231;SDS011;70703;55.652;37.710;2023-08-08T00:54:46;10.00;;;3.60;;
81231;SDS011;70703;55.652;37.710;2023-08-08T00:55:00;10.27;;;3.70;;
81231;SDS011;70703;55.652;37.710;2023-08-08T00:55:12;6.80;;;3.78;;
81231;SDS011;70703;55.652;37.710;2023-08-08T00:55:26;6.93;;;3.67;;
81231;SDS011;70703;55.652;37.710;2023-08-08T00:55:37;6.68;;;3.38;;
81231;SDS011;70703;55.652;37.710;2023-08-08T00:55:49;9.10;;;3.65;;
81231;SDS011;70703;55.652;37.710;2023-08-08T00:56:02;9.70;;;3.90;;
81231;SDS011;70703;55.652;37.710;2023-08-08T00:56:14;8.60;;;3.80;;
81231;SDS011;70703;55.652;37.710;2023-08-08T00:56:28;7.47;;;3.90;;
81231;SDS011;70703;55.652;37.710;2023-08-08T00:56:41;6.57;;;3.97;;
81231;SDS011;70703;55.652;37.710;2023-08-08T00:56:52;6.70;;;4.00;;
81231;SDS011;70703;55.652;37.710;2023-08-08T00:57:05;7.93;;;4.10;;
81231;SDS011;70703;55.652;37.710;2023-08-08T00:57:17;10.32;;;4.13;;
81231;SDS011;70703;55.652;37.710;2023-08-08T00:57:29;9.40;;;4.00;;
81231;SDS011;70703;55.652;37.710;2023-08-08T00:57:41;8.95;;;4.00;;
81231;SDS011;70703;55.652;37.710;2023-08-08T00:57:53;9.57;;;4.03;;
81231;SDS011;70703;55.652;37.710;2023-08-08T00:58:05;9.85;;;3.95;;
81231;SDS011;70703;55.652;37.710;2023-08-08T00:58:16;9.15;;;4.15;;
81231;SDS011;70703;55.652;37.710;2023-08-08T00:58:29;8.02;;;4.22;;
81231;SDS011;70703;55.652;37.710;2023-08-08T00:58:41;7.50;;;4.05;;
81231;SDS011;70703;55.652;37.710;2023-08-08T00:58:52;7.40;;;3.75;;
81231;SDS011;70703;55.652;37.710;2023-08-08T00:59:04;7.70;;;3.78;;
81231;SDS011;70703;55.652;37.710;2023-08-08T00:59:16;9.95;;;3.90;;
81231;SDS011;70703;55.652;37.710;2023-08-08T00:59:31;11.25;;;3.97;;
81231;SDS011;70703;55.652;37.710;2023-08-08T00:59:43;10.45;;;4.20;;
81231;SDS011;70703;55.652;37.710;2023-08-08T00:59:54;11.00;;;4.10;;
81231;SDS011;70703;55.652;37.710;2023-08-08T01:00:09;9.63;;;4.00;;
81231;SDS011;70703;55.652;37.710;2023-08-08T01:00:26;7.80;;;3.63;;
81231;SDS011;70703;55.652;37.710;2023-08-08T01:00:38;7.47;;;3.35;;
81231;SDS011;70703;55.652;37.710;2023-08-08T01:00:56;10.80;;;3.70;;
81231;SDS011;70703;55.652;37.710;2023-08-08T01:01:11;11.25;;;3.70;;
81231;SDS011;70703;55.652;37.710;2023-08-08T01:01:28;11.35;;;3.60;;
81231;SDS011;70703;55.652;37.710;2023-08-08T01:01:40;9.63;;;3.60;;
81231;SDS011;70703;55.652;37.710;2023-08-08T01:01:57;8.65;;;3.47;;
81231;SDS011;70703;55.652;37.710;2023-08-08T01:02:08;9.30;;;3.70;;
81231;SDS011;70703;55.652;37.710;2023-08-08T01:02:20;8.40;;;3.90;;
81231;SDS011;70703;55.652;37.710;2023-08-08T01:02:33;8.65;;;3.85;;
81231;SDS011;70703;55.652;37.710;2023-08-08T01:02:45;9.02;;;3.67;;
81231;SDS011;70703;55.652;37.710;2023-08-08T01:02:56;8.80;;;3.63;;
81231;SDS011;70703;55.652;37.710;2023-08-08T01:03:08;7.75;;;3.60;;
81231;SDS011;70703;55.652;37.710;2023-08-08T01:03:20;7.35;;;3.63;;
81231;SDS011;70703;55.652;37.710;2023-08-08T01:03:31;9.00;;;3.80;;
81231;SDS011;70703;55.652;37.710;2023-08-08T01:03:42;9.30;;;3.80;;
81231;SDS011;70703;55.652;37.710;2023-08-08T01:03:54;7.50;;;3.90;;
81231;SDS011;70703;55.652;37.710;2023-08-08T01:04:08;5.90;;;3.90;;
81231;SDS011;70703;55.652;37.710;2023-08-08T01:04:20;5.80;;;3.85;;
81231;SDS011;70703;55.652;37.710;2023-08-08T01:04:35;7.20;;;3.70;;
81231;SDS011;70703;55.652;37.710;2023-08-08T01:04:46;8.77;;;3.85;;
81231;SDS011;70703;55.652;37.710;2023-08-08T01:04:58;11.30;;;4.10;;
81231;SDS011;70703;55.652;37.710;2023-08-08T01:05:11;10.90;;;4.22;;
81231;SDS011;70703;55.652;37.710;2023-08-08T01:05:23;11.40;;;4.25;;
81231;SDS011;70703;55.652;37.710;2023-08-08T01:05:42;9.32;;;3.83;;
81231;SDS011;70703;55.652;37.710;2023-08-08T01:06:01;8.85;;;3.80;;
81231;SDS011;70703;55.652;37.710;2023-08-08T01:06:19;8.52;;;4.20;;
81231;SDS011;70703;55.652;37.710;2023-08-08T01:06:48;8.25;;;4.05;;
81231;SDS011;70703;55.652;37.710;2023-08-08T01:07:10;8.00;;;3.95;;
81231;SDS011;70703;55.652;37.710;2023-08-08T01:07:30;8.27;;;3.70;;
81231;SDS011;70703;55.652;37.710;2023-08-08T01:08:02;7.25;;;3.47;;
81231;SDS011;70703;55.652;37.710;2023-08-08T01:08:18;7.72;;;3.72;;
81231;SDS011;70703;55.652;37.710;2023-08-08T01:08:39;8.32;;;3.83;;
81231;SDS011;70703;55.652;37.710;2023-08-08T01:08:57;8.40;;;3.63;;
81231;SDS011;70703;55.652;37.710;2023-08-08T01:09:13;10.05;;;4.00;;
81231;SDS011;70703;55.652;37.710;2023-08-08T01:09:39;12.70;;;3.65;;
81231;SDS011;70703;55.652;37.710;2023-08-08T01:09:57;7.63;;;3.78;;
81231;SDS011;70703;55.652;37.710;2023-08-08T01:10:19;7.13;;;3.63;;
81231;SDS011;70703;55.652;37.710;2023-08-08T01:10:36;9.82;;;3.50;;
81231;SDS011;70703;55.652;37.710;2023-08-08T01:10:50;9.75;;;3.60;;
81231;SDS011;70703;55.652;37.710;2023-08-08T01:11:04;8.43;;;3.83;;
81231;SDS011;70703;55.652;37.710;2023-08-08T01:11:17;8.60;;;3.90;;
81231;SDS011;70703;55.652;37.710;2023-08-08T01:11:29;7.55;;;3.90;;
81231;SDS011;70703;55.652;37.710;2023-08-08T01:11:43;7.32;;;3.67;;
81231;SDS011;70703;55.652;37.710;2023-08-08T01:11:59;6.88;;;3.88;;
81231;SDS011;70703;55.652;37.710;2023-08-08T01:12:13;8.10;;;4.00;;
81231;SDS011;70703;55.652;37.710;2023-08-08T01:12:26;9.93;;;3.97;;
81231;SDS011;70703;55.652;37.710;2023-08-08T01:12:39;10.95;;;4.10;;
81231;SDS011;70703;55.652;37.710;2023-08-08T01:12:56;8.88;;;4.07;;
81231;SDS011;70703;55.652;37.710;2023-08-08T01:13:15;13.05;;;3.85;;
81231;SDS011;70703;55.652;37.710;2023-08-08T01:13:30;9.00;;;3.67;;
81231;SDS011;70703;55.652;37.710;2023-08-08T01:13:44;9.10;;;3.70;;
81231;SDS011;70703;55.652;37.710;2023-08-08T01:13:59;8.93;;;3.90;;
81231;SDS011;70703;55.652;37.710;2023-08-08T01:14:11;8.75;;;3.80;;
81231;SDS011;70703;55.652;37.710;2023-08-08T01:14:24;9.55;;;3.72;;
81231;SDS011;70703;55.652;37.710;2023-08-08T01:14:41;10.98;;;4.00;;
81231;SDS011;70703;55.652;37.710;2023-08-08T01:14:54;9.18;;;3.85;;
81231;SDS011;70703;55.652;37.710;2023-08-08T01:15:06;7.18;;;3.60;;
81231;SDS011;70703;55.652;37.710;2023-08-08T01:15:20;7.22;;;3.67;;